Time;durP1;ratioP1;P1;durP2;ratioP2;P2;SDS_P1;SDS_P2;PMS_P1;PMS_P2;Temp;Humidity;BMP_temperature;BMP_pressure;BME280_temperature;BME280_humidity;BME280_pressure;Samples;Min_cycle;Max_cycle;Signal;HPM_P1;HPM_P2
2022/01/30 00:00:15;;;;;;;27.30;4.45;;;6.40;99.90;;;;;;4971559;28;20169;-81
2022/01/30 00:02:40;;;;;;;17.92;3.17;;;6.40;99.90;;;;;;4973102;28;20041;-81
2022/01/30 00:05:07;;;;;;;14.85;3.60;;;6.20;99.90;;;;;;4972140;28;20359;-81
2022/01/30 00:07:33;;;;;;;21.92;4.32;;;6.20;99.90;;;;;;4979880;28;20054;-81
2022/01/30 00:09:59;;;;;;;20.25;3.72;;;6.10;99.90;;;;;;4966415;28;20401;-81
2022/01/30 00:12:40;;;;;;;27.48;5.10;;;6.10;99.90;;;;;;4966630;28;20050;-81
2022/01/30 00:15:10;;;;;;;21.70;4.32;;;6.00;99.90;;;;;;4971583;28;20735;-81
2022/01/30 00:17:42;;;;;;;29.85;4.10;;;6.00;99.90;;;;;;4975985;28;20074;-81
2022/01/30 00:20:15;;;;;;;30.45;5.13;;;6.10;99.90;;;;;;4977203;28;20039;-81
2022/01/30 00:22:49;;;;;;;21.45;4.70;;;6.20;99.90;;;;;;4961810;28;20398;-81
2022/01/30 00:25:28;;;;;;;21.38;4.22;;;6.20;99.90;;;;;;4976565;28;20074;-81
2022/01/30 00:28:05;;;;;;;27.83;5.78;;;6.30;99.90;;;;;;4964868;28;20410;-81
2022/01/30 00:30:34;;;;;;;28.25;4.88;;;6.30;99.90;;;;;;4987196;28;20042;-81
2022/01/30 00:33:01;;;;;;;23.05;4.05;;;6.30;99.90;;;;;;4961862;28;20426;-81
2022/01/30 00:35:27;;;;;;;23.42;5.63;;;6.40;99.90;;;;;;4969672;28;20063;-81
2022/01/30 00:37:54;;;;;;;23.95;4.20;;;6.40;99.90;;;;;;4973278;28;20050;-81
2022/01/30 00:40:19;;;;;;;20.48;4.07;;;6.40;99.90;;;;;;4973248;28;20054;-80
2022/01/30 00:42:45;;;;;;;27.15;5.63;;;6.50;99.90;;;;;;4966107;28;20557;-81
2022/01/30 00:45:11;;;;;;;21.67;3.80;;;6.60;99.90;;;;;;4975735;28;20056;-80
2022/01/30 00:47:39;;;;;;;21.95;4.65;;;6.70;99.90;;;;;;4961007;28;20034;-81
2022/01/30 00:50:05;;;;;;;20.33;4.68;;;6.40;99.90;;;;;;4961864;28;20398;-81
2022/01/30 00:52:31;;;;;;;24.13;5.43;;;6.20;99.90;;;;;;4954655;28;20466;-81
2022/01/30 00:54:57;;;;;;;19.15;4.50;;;6.10;99.90;;;;;;4971140;28;20046;-81
2022/01/30 00:57:22;;;;;;;17.67;4.20;;;6.10;99.90;;;;;;4966313;28;20031;-81
2022/01/30 00:59:49;;;;;;;23.02;4.57;;;6.00;99.90;;;;;;4980482;28;20160;-81
2022/01/30 01:02:16;;;;;;;27.48;4.72;;;6.00;99.90;;;;;;4956099;28;20405;-81
2022/01/30 01:04:43;;;;;;;18.77;3.55;;;6.00;99.90;;;;;;4976143;28;20042;-81
2022/01/30 01:07:14;;;;;;;17.95;3.67;;;6.10;99.90;;;;;;4979140;28;20046;-81
2022/01/30 01:09:42;;;;;;;11.85;3.47;;;6.10;99.90;;;;;;4976739;28;20039;-81
2022/01/30 01:25:31;;;;;;;24.02;3.85;;;6.00;99.90;;;;;;4976968;28;19917;-81
2022/01/30 01:27:57;;;;;;;23.48;3.63;;;6.00;99.90;;;;;;4967851;28;20053;-81
2022/01/30 01:30:23;;;;;;;19.75;4.22;;;5.90;99.90;;;;;;4967836;28;20911;-81
2022/01/30 01:32:48;;;;;;;13.88;3.25;;;5.90;99.90;;;;;;4969069;28;20408;-80
2022/01/30 01:35:14;;;;;;;20.42;5.05;;;6.10;99.90;;;;;;4974891;28;20104;-81
2022/01/30 01:37:40;;;;;;;22.00;4.50;;;6.10;99.90;;;;;;4969877;28;20050;-80
2022/01/30 01:40:06;;;;;;;21.83;4.07;;;6.10;99.90;;;;;;4993475;28;20061;-81
2022/01/30 01:42:34;;;;;;;26.55;6.10;;;6.10;99.90;;;;;;4966323;28;20045;-81
2022/01/30 01:45:00;;;;;;;19.17;3.50;;;6.00;99.90;;;;;;4971833;28;20152;-81
2022/01/30 01:47:31;;;;;;;19.65;4.88;;;6.10;99.90;;;;;;4959285;28;20041;-81
2022/01/30 01:50:00;;;;;;;18.98;4.53;;;6.00;99.90;;;;;;4978733;28;20050;-81
2022/01/30 01:52:26;;;;;;;19.83;3.70;;;5.60;99.90;;;;;;4972850;28;20058;-81
2022/01/30 01:54:57;;;;;;;20.23;4.72;;;5.50;99.90;;;;;;4969175;28;20072;-81
2022/01/30 01:57:25;;;;;;;19.27;4.15;;;5.50;99.90;;;;;;4987509;28;20563;-81
2022/01/30 01:59:51;;;;;;;25.23;4.80;;;5.60;99.90;;;;;;4955413;28;20105;-81
2022/01/30 02:02:17;;;;;;;23.70;3.88;;;5.50;99.90;;;;;;4960692;28;20118;-81
2022/01/30 02:04:44;;;;;;;16.77;4.40;;;5.60;99.90;;;;;;4964066;28;20545;-81
2022/01/30 02:07:53;;;;;;;26.10;4.95;;;5.60;99.90;;;;;;4975662;28;20077;-81
2022/01/30 02:10:21;;;;;;;19.23;4.15;;;5.70;99.90;;;;;;4982851;28;20045;-81
2022/01/30 02:12:51;;;;;;;28.23;5.88;;;5.70;99.90;;;;;;4960979;28;20089;-81
2022/01/30 02:26:01;;;;;;;26.10;4.83;;;6.10;99.90;;;;;;4965720;28;20042;-81
2022/01/30 02:28:28;;;;;;;24.00;4.57;;;6.10;99.90;;;;;;4967883;28;20093;-80
2022/01/30 02:31:11;;;;;;;29.13;5.53;;;5.90;99.90;;;;;;4968619;28;20129;-80
2022/01/30 02:33:39;;;;;;;27.30;5.70;;;5.80;99.90;;;;;;4955786;28;20045;-81
2022/01/30 02:36:05;;;;;;;19.92;4.18;;;5.80;99.90;;;;;;4968842;28;20469;-81
2022/01/30 02:38:31;;;;;;;21.98;4.28;;;5.90;99.90;;;;;;4970846;28;20054;-81
2022/01/30 02:40:58;;;;;;;17.52;4.90;;;5.80;99.90;;;;;;4987125;28;20073;-81
2022/01/30 02:43:32;;;;;;;25.88;5.03;;;5.80;99.90;;;;;;4975073;28;20481;-81
2022/01/30 02:48:53;;;;;;;24.08;6.22;;;5.90;99.90;;;;;;4983389;28;20057;-81
2022/01/30 02:51:22;;;;;;;18.20;4.30;;;6.00;99.90;;;;;;4954712;28;20382;-81
2022/01/30 02:53:56;;;;;;;34.67;6.07;;;6.10;99.90;;;;;;4967867;28;20077;-81
2022/01/30 02:56:22;;;;;;;23.00;4.40;;;6.10;99.90;;;;;;4956677;28;20057;-81
2022/01/30 02:58:48;;;;;;;31.48;5.22;;;6.20;99.90;;;;;;4966755;28;20066;-81
2022/01/30 03:01:13;;;;;;;25.42;4.88;;;6.20;99.90;;;;;;4952779;28;20066;-81
2022/01/30 03:03:39;;;;;;;22.90;5.15;;;6.20;99.90;;;;;;4972534;28;20035;-80
2022/01/30 03:06:05;;;;;;;26.33;5.00;;;6.20;99.90;;;;;;4959768;28;20038;-81
2022/01/30 03:08:30;;;;;;;24.10;5.18;;;6.20;99.90;;;;;;4985539;28;20028;-81
2022/01/30 03:10:56;;;;;;;27.45;6.10;;;6.20;99.90;;;;;;4970626;28;20696;-80
2022/01/30 03:13:21;;;;;;;24.77;5.60;;;6.10;99.90;;;;;;4955778;28;20390;-81
2022/01/30 03:15:47;;;;;;;26.40;4.65;;;6.20;99.90;;;;;;4967624;28;20062;-81
2022/01/30 03:18:13;;;;;;;28.70;6.15;;;6.10;99.90;;;;;;4982331;28;20107;-81
2022/01/30 03:20:38;;;;;;;26.70;5.65;;;6.20;99.90;;;;;;4973511;28;20074;-80
2022/01/30 03:23:07;;;;;;;30.73;6.20;;;6.20;99.90;;;;;;4973239;28;20038;-81
2022/01/30 03:25:33;;;;;;;31.88;5.15;;;6.20;99.90;;;;;;4973652;28;20886;-81
2022/01/30 03:28:01;;;;;;;22.10;5.35;;;6.20;99.90;;;;;;4959563;28;20363;-81
2022/01/30 03:30:30;;;;;;;25.23;4.53;;;6.20;99.90;;;;;;4978314;28;20091;-81
2022/01/30 03:32:56;;;;;;;30.80;5.40;;;6.20;99.90;;;;;;4975811;28;20038;-81
2022/01/30 03:35:22;;;;;;;26.60;5.43;;;6.20;99.90;;;;;;4973916;28;20061;-81
2022/01/30 03:37:47;;;;;;;25.33;4.95;;;6.20;99.90;;;;;;4965887;28;20125;-81
2022/01/30 03:40:14;;;;;;;23.50;4.40;;;6.20;99.90;;;;;;4983080;28;20137;-81
2022/01/30 03:42:40;;;;;;;22.80;5.30;;;6.30;99.90;;;;;;4958150;28;20127;-81
2022/01/30 03:45:06;;;;;;;35.58;6.57;;;6.40;99.90;;;;;;4970582;28;20181;-81
2022/01/30 03:47:32;;;;;;;35.50;5.72;;;6.40;99.90;;;;;;4953837;28;20501;-81
2022/01/30 03:49:58;;;;;;;30.25;5.57;;;6.40;99.90;;;;;;4969416;28;20038;-81
2022/01/30 03:52:23;;;;;;;27.98;5.72;;;6.50;99.90;;;;;;4961379;28;20034;-81
2022/01/30 03:54:49;;;;;;;21.88;5.00;;;6.50;99.90;;;;;;4965400;28;20054;-81
2022/01/30 03:57:15;;;;;;;25.50;5.88;;;6.50;99.90;;;;;;4983273;28;20046;-81
2022/01/30 03:59:41;;;;;;;29.60;5.15;;;6.50;99.90;;;;;;4973032;28;20053;-81
2022/01/30 04:02:06;;;;;;;35.88;6.05;;;6.60;99.90;;;;;;4986678;28;20038;-81
2022/01/30 04:04:33;;;;;;;31.52;6.63;;;6.60;99.90;;;;;;4968826;28;20050;-81
2022/01/30 04:06:59;;;;;;;33.25;6.80;;;6.60;99.90;;;;;;4973546;28;20160;-81
2022/01/30 04:09:32;;;;;;;33.50;6.07;;;6.50;99.90;;;;;;4963091;28;20035;-80
2022/01/30 04:11:57;;;;;;;38.30;6.53;;;6.50;99.90;;;;;;4955197;28;20047;-80
2022/01/30 04:14:24;;;;;;;34.28;7.03;;;6.30;99.90;;;;;;4973840;28;20027;-81
2022/01/30 04:16:49;;;;;;;32.05;6.75;;;6.00;99.90;;;;;;4970092;28;20491;-81
2022/01/30 04:19:15;;;;;;;41.15;7.72;;;5.90;99.90;;;;;;4976465;28;20042;-81
2022/01/30 04:21:41;;;;;;;31.52;6.50;;;5.80;99.90;;;;;;4970715;28;20538;-81
2022/01/30 04:24:07;;;;;;;31.23;7.00;;;6.00;99.90;;;;;;4974315;28;20054;-81
2022/01/30 04:26:36;;;;;;;40.22;8.32;;;6.10;99.90;;;;;;4955287;28;20034;-80
2022/01/30 04:29:05;;;;;;;34.30;6.72;;;6.00;99.90;;;;;;4970091;28;20039;-81
2022/01/30 04:31:32;;;;;;;39.28;6.53;;;6.10;99.90;;;;;;4967834;28;20045;-81
2022/01/30 04:33:58;;;;;;;35.20;8.25;;;6.10;99.90;;;;;;4968498;28;20045;-80
2022/01/30 04:37:00;;;;;;;35.88;7.65;;;6.00;99.90;;;;;;4972830;28;20050;-81
2022/01/30 04:42:18;;;;;;;35.92;7.82;;;6.00;99.90;;;;;;4968531;28;20112;-81
2022/01/30 04:57:54;;;;;;;30.70;6.40;;;6.10;99.90;;;;;;4969198;28;20126;-80
2022/01/30 05:00:29;;;;;;;42.30;8.02;;;6.10;99.90;;;;;;4987009;28;20242;-81
2022/01/30 05:03:05;;;;;;;43.42;7.78;;;6.10;99.90;;;;;;4983162;28;20050;-80
2022/01/30 05:05:48;;;;;;;43.28;6.97;;;6.20;99.90;;;;;;4960904;28;20038;-80
2022/01/30 05:08:14;;;;;;;41.67;8.15;;;6.10;99.90;;;;;;4961965;28;20700;-80
2022/01/30 05:10:40;;;;;;;41.40;7.70;;;6.20;99.90;;;;;;4967190;28;20042;-81
2022/01/30 05:13:09;;;;;;;47.22;7.70;;;6.10;99.90;;;;;;4972121;28;20125;-80
2022/01/30 05:15:35;;;;;;;40.95;8.20;;;6.00;99.90;;;;;;4971287;28;20425;-81
2022/01/30 05:18:05;;;;;;;37.00;7.00;;;6.10;99.90;;;;;;4968493;28;20042;-80
2022/01/30 05:20:30;;;;;;;45.42;7.55;;;6.10;99.90;;;;;;4976732;28;20042;-80
2022/01/30 05:22:57;;;;;;;43.70;7.80;;;6.00;99.90;;;;;;4967147;28;20275;-81
2022/01/30 05:25:23;;;;;;;31.10;7.15;;;6.00;99.90;;;;;;4968843;28;20030;-80
2022/01/30 05:27:49;;;;;;;32.33;7.18;;;6.00;99.90;;;;;;4968549;28;20379;-80
2022/01/30 05:30:15;;;;;;;31.73;7.55;;;6.00;99.90;;;;;;4969983;28;20103;-80
2022/01/30 05:32:41;;;;;;;37.20;7.30;;;5.90;99.90;;;;;;4987058;28;20243;-80
2022/01/30 05:35:07;;;;;;;35.63;6.25;;;5.90;99.90;;;;;;4970767;28;20041;-80
2022/01/30 05:37:37;;;;;;;39.53;8.55;;;5.80;99.90;;;;;;4975915;28;20042;-80
2022/01/30 05:40:04;;;;;;;29.73;7.00;;;5.80;99.90;;;;;;4967125;28;20046;-80
2022/01/30 05:42:30;;;;;;;42.95;7.60;;;5.80;99.90;;;;;;4946241;28;20051;-80
2022/01/30 05:45:08;;;;;;;35.65;8.35;;;5.80;99.90;;;;;;4968211;28;20539;-80
2022/01/30 05:47:43;;;;;;;32.55;7.70;;;5.80;99.90;;;;;;4970284;28;20194;-80
2022/01/30 05:50:09;;;;;;;;;;;5.90;99.90;;;;;;4971854;28;20041;-81
2022/01/30 05:52:34;;;;;;;38.05;7.78;;;5.90;99.90;;;;;;4955407;28;19917;-81
2022/01/30 05:55:00;;;;;;;33.97;7.10;;;5.90;99.90;;;;;;4956551;28;20038;-80
2022/01/30 05:57:27;;;;;;;36.85;8.15;;;6.00;99.90;;;;;;4951299;28;20173;-80
2022/01/30 05:59:53;;;;;;;37.67;7.38;;;6.00;99.90;;;;;;4966133;28;20062;-80
2022/01/30 06:02:19;;;;;;;47.80;9.05;;;6.10;99.90;;;;;;4972515;28;20113;-80
2022/01/30 06:04:44;;;;;;;45.95;9.40;;;6.10;99.90;;;;;;4970598;28;20083;-80
2022/01/30 06:07:11;;;;;;;49.63;10.13;;;6.10;99.90;;;;;;4953795;28;20093;-80
2022/01/30 06:09:36;;;;;;;45.80;9.65;;;6.20;99.90;;;;;;4981159;28;20501;-80
2022/01/30 06:12:03;;;;;;;40.25;7.72;;;6.00;99.90;;;;;;4966789;28;20035;-80
2022/01/30 06:14:28;;;;;;;36.65;7.25;;;5.80;99.90;;;;;;4989657;28;20070;-80
2022/01/30 06:16:54;;;;;;;41.10;7.57;;;5.80;99.90;;;;;;4951644;28;20080;-80
2022/01/30 06:19:22;;;;;;;37.55;7.90;;;5.80;99.90;;;;;;4958496;28;20470;-80
2022/01/30 06:21:48;;;;;;;33.30;7.43;;;5.90;99.90;;;;;;4971154;28;20046;-80
2022/01/30 06:24:14;;;;;;;37.88;7.60;;;6.00;99.90;;;;;;4957388;28;20512;-80
2022/01/30 06:26:39;;;;;;;40.95;8.10;;;6.00;99.90;;;;;;4970940;28;20053;-80
2022/01/30 06:29:05;;;;;;;39.40;7.70;;;6.10;99.90;;;;;;4968658;28;20026;-80
2022/01/30 06:31:31;;;;;;;47.80;8.68;;;6.00;99.90;;;;;;4951764;28;20171;-80
2022/01/30 06:33:57;;;;;;;43.40;9.63;;;5.90;99.90;;;;;;4975197;28;20081;-80
2022/01/30 06:36:22;;;;;;;44.15;9.05;;;5.90;99.90;;;;;;4969500;28;20391;-80
2022/01/30 06:38:50;;;;;;;32.58;5.82;;;6.00;99.90;;;;;;4968764;28;20062;-80
2022/01/30 06:41:16;;;;;;;42.92;8.55;;;6.10;99.90;;;;;;4959372;28;20414;-80
2022/01/30 06:43:41;;;;;;;35.85;7.20;;;6.00;99.90;;;;;;4954863;28;20066;-80
2022/01/30 06:46:10;;;;;;;41.17;7.55;;;6.00;99.90;;;;;;4956878;28;20103;-80
2022/01/30 06:48:36;;;;;;;37.92;8.25;;;6.00;99.90;;;;;;4973623;28;20111;-80
2022/01/30 06:51:02;;;;;;;36.28;7.28;;;6.00;99.90;;;;;;4957919;28;20519;-80
2022/01/30 06:53:27;;;;;;;38.75;7.18;;;6.20;99.90;;;;;;4956480;28;20035;-80
2022/01/30 06:55:53;;;;;;;32.80;6.05;;;6.20;99.90;;;;;;4976092;28;20297;-80
2022/01/30 06:58:19;;;;;;;34.50;7.43;;;6.20;99.90;;;;;;4954555;28;20035;-80
2022/01/30 07:00:44;;;;;;;38.60;7.30;;;6.20;99.90;;;;;;4958178;28;20042;-81
2022/01/30 07:03:10;;;;;;;41.28;8.60;;;6.20;99.90;;;;;;4959556;28;20038;-80
2022/01/30 07:05:36;;;;;;;46.30;8.65;;;6.30;99.90;;;;;;4953055;28;20419;-80
2022/01/30 07:08:01;;;;;;;39.20;8.85;;;6.20;99.90;;;;;;4984389;28;20041;-80
2022/01/30 07:10:27;;;;;;;39.88;8.55;;;6.20;99.90;;;;;;4956366;28;20054;-80
2022/01/30 07:12:53;;;;;;;38.50;8.60;;;6.20;99.90;;;;;;4955005;28;20130;-80
2022/01/30 07:15:18;;;;;;;43.83;8.30;;;6.20;99.90;;;;;;4957896;28;20390;-80
2022/01/30 07:17:44;;;;;;;44.88;9.18;;;6.00;99.90;;;;;;4970048;28;20046;-80
2022/01/30 07:20:11;;;;;;;41.45;8.68;;;5.90;99.90;;;;;;4965874;28;20070;-80
2022/01/30 07:22:37;;;;;;;49.88;8.32;;;6.00;99.90;;;;;;4952020;28;20097;-80
2022/01/30 07:25:05;;;;;;;35.00;8.25;;;6.00;99.90;;;;;;4952101;28;20050;-80
2022/01/30 07:27:31;;;;;;;37.47;7.95;;;6.00;99.90;;;;;;4955115;28;20594;-80
2022/01/30 07:29:57;;;;;;;36.85;8.10;;;6.10;99.90;;;;;;4958383;28;20559;-80
2022/01/30 07:32:23;;;;;;;42.30;8.65;;;6.10;99.90;;;;;;4967610;28;20926;-80
2022/01/30 07:34:52;;;;;;;35.85;7.30;;;6.10;99.90;;;;;;4971954;28;20031;-80
2022/01/30 07:37:19;;;;;;;41.80;8.27;;;6.00;99.90;;;;;;4968778;28;20042;-80
2022/01/30 07:39:44;;;;;;;42.20;8.75;;;6.00;99.90;;;;;;4974745;28;20409;-80
2022/01/30 07:42:10;;;;;;;39.25;7.40;;;6.10;99.90;;;;;;4955875;28;20053;-80
2022/01/30 07:44:36;;;;;;;29.65;6.80;;;6.00;99.90;;;;;;4954025;28;20184;-80
2022/01/30 07:47:03;;;;;;;34.10;7.60;;;6.00;99.90;;;;;;4965699;28;20303;-80
2022/01/30 07:49:28;;;;;;;31.45;6.47;;;6.10;99.90;;;;;;4968498;28;20064;-80
2022/01/30 07:51:54;;;;;;;28.25;5.90;;;6.10;99.90;;;;;;4965061;28;20050;-80
2022/01/30 07:54:21;;;;;;;32.60;6.88;;;6.10;99.90;;;;;;4969996;28;20057;-80
2022/01/30 07:56:46;;;;;;;28.92;7.35;;;6.00;99.90;;;;;;4964907;28;20113;-80
2022/01/30 07:59:12;;;;;;;31.38;6.30;;;6.10;99.90;;;;;;4983498;28;20461;-80
2022/01/30 08:01:38;;;;;;;31.88;5.47;;;6.10;99.90;;;;;;4971053;28;20034;-80
2022/01/30 08:04:06;;;;;;;26.75;5.93;;;6.00;99.90;;;;;;4952478;28;20102;-80
2022/01/30 08:06:35;;;;;;;23.55;5.35;;;6.10;99.90;;;;;;4969599;28;20043;-80
2022/01/30 08:09:01;;;;;;;29.25;6.25;;;6.10;99.90;;;;;;4972469;28;20632;-80
2022/01/30 08:11:27;;;;;;;35.08;6.25;;;6.20;99.90;;;;;;4974247;28;20494;-80
2022/01/30 08:13:53;;;;;;;20.33;4.80;;;6.10;99.90;;;;;;4961512;28;20049;-80
2022/01/30 08:16:20;;;;;;;32.58;6.18;;;6.10;99.90;;;;;;4960377;28;20429;-80
2022/01/30 08:18:46;;;;;;;29.08;7.18;;;6.10;99.90;;;;;;4975225;28;20042;-80
2022/01/30 08:21:12;;;;;;;32.22;6.40;;;6.20;99.90;;;;;;4976237;28;20056;-80
2022/01/30 08:23:40;;;;;;;30.77;6.60;;;6.10;99.90;;;;;;4983398;28;20508;-80
2022/01/30 08:26:06;;;;;;;44.30;7.75;;;6.20;99.90;;;;;;4951902;28;20284;-80
2022/01/30 08:28:32;;;;;;;35.50;6.82;;;6.20;99.90;;;;;;4972234;28;20079;-80
2022/01/30 08:30:57;;;;;;;32.78;6.88;;;6.20;99.90;;;;;;4954574;28;20077;-80
2022/01/30 08:33:23;;;;;;;37.67;7.63;;;6.20;99.90;;;;;;4970791;28;20043;-80
2022/01/30 08:35:50;;;;;;;33.53;6.38;;;6.20;99.90;;;;;;4956458;28;20081;-80
2022/01/30 08:38:18;;;;;;;29.50;6.38;;;6.10;99.90;;;;;;4955745;28;20130;-80
2022/01/30 08:40:45;;;;;;;33.40;7.07;;;6.10;99.90;;;;;;4970258;28;20058;-80
2022/01/30 08:43:11;;;;;;;36.15;7.32;;;6.00;99.90;;;;;;4974988;28;20031;-80
2022/01/30 08:45:36;;;;;;;35.65;7.18;;;6.00;99.90;;;;;;4965978;28;20589;-80
2022/01/30 08:48:02;;;;;;;30.27;6.53;;;6.10;99.90;;;;;;4972541;28;20084;-80
2022/01/30 08:50:28;;;;;;;36.13;7.07;;;6.20;99.90;;;;;;4965995;28;20050;-80
2022/01/30 08:52:54;;;;;;;43.67;7.75;;;6.30;99.90;;;;;;4971431;28;20043;-82
2022/01/30 08:55:20;;;;;;;44.13;7.30;;;6.30;99.90;;;;;;4960074;28;20105;-80
2022/01/30 08:57:49;;;;;;;37.40;7.43;;;6.30;99.90;;;;;;4974484;28;20485;-80
2022/01/30 09:00:17;;;;;;;38.28;9.07;;;6.30;99.90;;;;;;4959599;28;20088;-80
2022/01/30 09:02:43;;;;;;;40.33;7.90;;;6.30;99.90;;;;;;4968735;28;20061;-80
2022/01/30 09:05:10;;;;;;;43.83;8.63;;;6.40;99.90;;;;;;4977226;28;20058;-80
2022/01/30 09:07:37;;;;;;;31.50;7.00;;;6.30;99.90;;;;;;4988102;28;20038;-80
2022/01/30 09:10:08;;;;;;;42.35;8.18;;;6.30;99.90;;;;;;4975371;28;20096;-80
2022/01/30 09:12:34;;;;;;;42.92;7.60;;;6.10;99.90;;;;;;4966330;28;20047;-80
2022/01/30 09:15:02;;;;;;;33.72;7.57;;;6.20;99.90;;;;;;4956264;28;20057;-80
2022/01/30 09:17:28;;;;;;;33.22;7.10;;;6.30;99.90;;;;;;4970555;28;20145;-80
2022/01/30 09:19:54;;;;;;;38.25;7.22;;;6.40;99.90;;;;;;4955070;28;20129;-80
2022/01/30 09:22:20;;;;;;;42.42;7.30;;;6.60;99.90;;;;;;4969130;28;20052;-80
2022/01/30 09:24:47;;;;;;;33.97;7.43;;;6.70;99.90;;;;;;4967956;28;20374;-80
2022/01/30 09:27:13;;;;;;;45.75;8.15;;;6.60;99.90;;;;;;4953055;28;20037;-80
2022/01/30 09:29:40;;;;;;;45.47;7.53;;;6.50;99.90;;;;;;4960975;28;20045;-80
2022/01/30 09:32:07;;;;;;;33.55;6.63;;;6.50;99.90;;;;;;4973527;28;20042;-80
2022/01/30 09:34:34;;;;;;;35.05;7.40;;;6.40;99.90;;;;;;4972772;28;20595;-80
2022/01/30 09:37:00;;;;;;;38.35;7.40;;;6.50;99.90;;;;;;4965105;28;20046;-80
2022/01/30 09:39:25;;;;;;;33.30;8.32;;;6.60;99.90;;;;;;4975203;28;20156;-80
2022/01/30 09:41:52;;;;;;;34.55;7.10;;;6.60;99.90;;;;;;4949293;28;20058;-80
2022/01/30 09:44:20;;;;;;;32.88;6.28;;;6.70;99.90;;;;;;4985351;28;20038;-80
2022/01/30 09:46:47;;;;;;;37.42;7.68;;;6.70;99.90;;;;;;4955657;28;20074;-80
2022/01/30 09:49:14;;;;;;;35.20;7.03;;;6.70;99.90;;;;;;4964307;28;20494;-80
2022/01/30 09:51:43;;;;;;;32.85;6.03;;;6.80;99.90;;;;;;4969031;28;20035;-80
2022/01/30 09:54:09;;;;;;;25.55;6.28;;;6.80;99.90;;;;;;4973937;28;20103;-80
2022/01/30 09:56:35;;;;;;;32.60;6.20;;;6.90;99.90;;;;;;4962150;28;20443;-80
2022/01/30 09:59:01;;;;;;;30.13;6.88;;;6.90;99.90;;;;;;4968749;28;20098;-80
2022/01/30 10:01:33;;;;;;;21.17;5.60;;;6.80;99.90;;;;;;4968409;28;20050;-80
2022/01/30 10:04:00;;;;;;;37.53;7.07;;;6.90;99.90;;;;;;4961631;28;20038;-80
2022/01/30 10:06:31;;;;;;;31.77;6.20;;;7.10;99.90;;;;;;4960500;28;20110;-80
2022/01/30 10:08:59;;;;;;;29.60;6.65;;;7.10;99.90;;;;;;4954382;28;20031;-80
2022/01/30 10:11:50;;;;;;;30.10;6.25;;;6.90;99.90;;;;;;4970937;28;20042;-80
2022/01/30 10:14:15;;;;;;;30.88;6.05;;;7.00;99.90;;;;;;4971223;28;20490;-80
2022/01/30 10:16:47;;;;;;;27.98;7.07;;;7.00;99.90;;;;;;4969420;28;20043;-80
2022/01/30 10:19:24;;;;;;;32.45;6.32;;;7.00;99.90;;;;;;4960889;28;20181;-80
2022/01/30 10:22:10;;;;;;;32.50;6.57;;;7.10;99.90;;;;;;4955862;28;20565;-80
2022/01/30 10:24:43;;;;;;;41.45;6.88;;;7.20;99.90;;;;;;4977016;28;20128;-80
2022/01/30 10:27:23;;;;;;;30.85;6.68;;;7.30;99.90;;;;;;4969833;28;20030;-80
2022/01/30 10:30:01;;;;;;;36.42;7.05;;;7.50;99.90;;;;;;4968475;28;20038;-80
2022/01/30 10:32:27;;;;;;;33.58;6.75;;;7.60;99.90;;;;;;4954533;28;20038;-80
2022/01/30 10:34:59;;;;;;;28.17;6.25;;;7.50;99.90;;;;;;4967519;28;20076;-80
2022/01/30 10:37:24;;;;;;;33.85;5.95;;;7.40;99.90;;;;;;4961816;28;20069;-81
2022/01/30 10:39:54;;;;;;;41.85;8.43;;;7.30;99.90;;;;;;4956601;28;20101;-80
2022/01/30 10:42:30;;;;;;;40.08;7.53;;;7.10;99.90;;;;;;4959404;28;20061;-80
2022/01/30 10:44:56;;;;;;;36.50;7.30;;;7.10;99.90;;;;;;4967610;28;20189;-80
2022/01/30 10:47:22;;;;;;;40.40;7.13;;;7.10;99.90;;;;;;4967368;28;20532;-80
2022/01/30 10:49:48;;;;;;;38.42;7.68;;;7.10;99.90;;;;;;4971920;28;20034;-80
2022/01/30 10:52:15;;;;;;;35.72;7.05;;;7.00;99.90;;;;;;4983753;28;20193;-80
2022/01/30 10:54:41;;;;;;;33.53;6.88;;;6.90;99.90;;;;;;4971422;28;20046;-80
2022/01/30 10:57:11;;;;;;;34.00;6.32;;;6.90;99.90;;;;;;4965882;28;20043;-80
2022/01/30 10:59:42;;;;;;;33.65;7.13;;;7.00;99.90;;;;;;4968727;28;20510;-80
2022/01/30 11:02:13;;;;;;;31.15;6.40;;;7.00;99.90;;;;;;4973312;28;20038;-80
2022/01/30 11:04:39;;;;;;;38.03;7.10;;;7.10;99.90;;;;;;4952477;28;20502;-80
2022/01/30 11:07:05;;;;;;;37.58;7.15;;;7.20;99.90;;;;;;4968272;28;20038;-80
2022/01/30 11:09:45;;;;;;;40.38;7.30;;;7.20;99.90;;;;;;4962335;28;20041;-80
2022/01/30 11:12:14;;;;;;;31.65;6.55;;;7.20;99.90;;;;;;4963428;28;20498;-80
2022/01/30 11:17:19;;;;;;;36.65;6.22;;;7.30;99.90;;;;;;4966635;28;20050;-80
2022/01/30 11:19:52;;;;;;;29.40;5.57;;;7.30;99.90;;;;;;4987347;28;20049;-80
2022/01/30 11:22:20;;;;;;;31.48;7.32;;;7.30;99.90;;;;;;4965044;28;20050;-80
2022/01/30 11:24:53;;;;;;;31.83;6.55;;;7.30;99.90;;;;;;4954312;28;20098;-80
2022/01/30 11:27:21;;;;;;;34.28;6.50;;;7.50;99.90;;;;;;4945712;28;20388;-80
2022/01/30 11:29:49;;;;;;;34.97;5.93;;;7.60;99.90;;;;;;4981173;28;20049;-80
2022/01/30 11:32:16;;;;;;;30.90;6.07;;;7.50;99.90;;;;;;4963462;28;20576;-80
2022/01/30 11:34:43;;;;;;;25.92;5.10;;;7.40;99.90;;;;;;4974445;28;20118;-80
2022/01/30 11:37:12;;;;;;;26.35;6.40;;;7.30;99.90;;;;;;4966536;28;20306;-80
2022/01/30 11:39:47;;;;;;;33.40;6.63;;;7.10;99.90;;;;;;4978025;28;20157;-80
2022/01/30 11:42:12;;;;;;;30.10;6.15;;;7.20;99.90;;;;;;4960932;28;20093;-80
2022/01/30 11:44:40;;;;;;;32.67;6.28;;;7.30;99.90;;;;;;4971512;28;20038;-81
2022/01/30 11:47:07;;;;;;;34.83;7.10;;;7.30;99.90;;;;;;4971791;28;20312;-80
2022/01/30 11:49:45;;;;;;;45.78;7.00;;;7.40;99.90;;;;;;4968369;28;20050;-80
2022/01/30 11:52:12;;;;;;;31.00;6.10;;;7.50;99.90;;;;;;4963582;28;20441;-80
2022/01/30 11:54:45;;;;;;;32.45;6.00;;;7.50;99.90;;;;;;4971710;28;20085;-80
2022/01/30 11:57:20;;;;;;;30.90;5.75;;;7.50;99.90;;;;;;4962565;28;20519;-80
2022/01/30 11:59:50;;;;;;;38.80;7.00;;;7.60;99.90;;;;;;4970302;28;20521;-80
2022/01/30 12:02:34;;;;;;;34.33;6.53;;;7.60;99.90;;;;;;4985652;28;20312;-80
2022/01/30 12:05:09;;;;;;;38.22;7.25;;;7.40;99.90;;;;;;4972670;28;20047;-80
2022/01/30 12:07:42;;;;;;;28.48;6.13;;;7.50;99.90;;;;;;4955572;28;20030;-80
2022/01/30 12:10:24;;;;;;;32.95;6.35;;;7.50;99.90;;;;;;4952124;28;20163;-80
2022/01/30 12:13:04;;;;;;;39.63;6.95;;;7.40;99.90;;;;;;4957517;28;20071;-80
2022/01/30 12:15:38;;;;;;;28.60;6.38;;;7.40;99.90;;;;;;4954674;28;20043;-80
2022/01/30 12:18:06;;;;;;;37.88;6.63;;;7.40;99.90;;;;;;4991145;28;20092;-80
2022/01/30 12:20:52;;;;;;;41.65;7.95;;;7.50;99.90;;;;;;4968356;28;20073;-80
2022/01/30 12:23:27;;;;;;;35.47;6.78;;;7.50;99.90;;;;;;4963112;28;20039;-80
2022/01/30 12:25:54;;;;;;;32.40;6.68;;;7.60;99.90;;;;;;4968853;28;20361;-79
2022/01/30 12:28:38;;;;;;;32.38;6.40;;;7.90;99.90;;;;;;4950188;28;20388;-80
2022/01/30 12:31:38;;;;;;;36.08;6.40;;;8.00;99.90;;;;;;4980898;28;20031;-80
2022/01/30 12:34:16;;;;;;;26.98;5.90;;;8.00;99.90;;;;;;4980296;28;20042;-80
2022/01/30 12:37:03;;;;;;;34.55;7.43;;;8.10;99.90;;;;;;4954816;28;20039;-81
2022/01/30 12:39:29;;;;;;;34.83;7.07;;;7.70;99.90;;;;;;4969351;28;20156;-80
2022/01/30 12:41:55;;;;;;;39.25;6.70;;;7.60;99.90;;;;;;4979581;28;20058;-80
2022/01/30 12:44:28;;;;;;;35.90;6.40;;;7.40;99.90;;;;;;4952969;28;20049;-80
2022/01/30 12:46:54;;;;;;;35.17;6.40;;;7.50;99.90;;;;;;4963086;28;20049;-80
2022/01/30 12:49:22;;;;;;;33.92;6.43;;;7.40;99.90;;;;;;4960265;28;20037;-80
2022/01/30 12:51:52;;;;;;;31.40;6.07;;;7.30;99.90;;;;;;4968674;28;20061;-81
2022/01/30 12:54:24;;;;;;;32.40;6.40;;;7.20;99.90;;;;;;4961383;28;20034;-80
2022/01/30 12:56:52;;;;;;;30.15;6.03;;;7.20;99.90;;;;;;4975375;28;20050;-80
2022/01/30 12:59:20;;;;;;;32.17;5.55;;;7.20;99.90;;;;;;4977954;28;20071;-80
2022/01/30 13:01:47;;;;;;;24.48;6.20;;;7.30;99.90;;;;;;4959531;28;20089;-80
2022/01/30 13:04:18;;;;;;;27.63;6.25;;;7.30;99.90;;;;;;4964043;28;20117;-80
2022/01/30 13:06:49;;;;;;;30.10;5.85;;;7.30;99.90;;;;;;4974431;28;20035;-80
2022/01/30 13:09:25;;;;;;;30.23;6.20;;;7.50;99.90;;;;;;4966963;28;20128;-80
2022/01/30 13:11:52;;;;;;;29.77;6.50;;;7.60;99.90;;;;;;4984892;28;20043;-80
2022/01/30 13:14:19;;;;;;;34.00;5.57;;;7.70;99.90;;;;;;4968560;28;20126;-80
2022/01/30 13:16:50;;;;;;;32.65;6.38;;;7.80;99.90;;;;;;4965367;28;20243;-80
2022/01/30 13:19:42;;;;;;;36.22;7.15;;;7.70;99.90;;;;;;4979723;28;20070;-80
2022/01/30 13:22:10;;;;;;;33.25;5.90;;;7.60;99.90;;;;;;4953514;28;20435;-80
2022/01/30 13:24:38;;;;;;;30.13;6.78;;;7.30;99.90;;;;;;4969937;28;20043;-80
2022/01/30 13:27:08;;;;;;;35.00;6.38;;;6.90;99.90;;;;;;4967942;28;20035;-80
2022/01/30 13:29:36;;;;;;;30.60;5.57;;;6.90;99.90;;;;;;4959324;28;20040;-80
2022/01/30 13:32:10;;;;;;;29.58;6.00;;;6.80;99.90;;;;;;4961360;28;20042;-80
2022/01/30 13:34:37;;;;;;;26.00;6.75;;;7.20;99.90;;;;;;4979524;28;20065;-80
2022/01/30 13:37:11;;;;;;;37.40;6.70;;;7.20;99.90;;;;;;4966724;28;20180;-80
2022/01/30 13:39:59;;;;;;;32.63;5.93;;;7.40;99.90;;;;;;4953185;28;20398;-80